createdAt,value
2023-02-14T00:00:05.053Z,8.94
2023-02-14T00:02:32.804Z,8.92
2023-02-14T00:05:00.609Z,8.90
2023-02-14T00:07:28.438Z,8.90
2023-02-14T00:09:56.178Z,8.90
2023-02-14T00:12:25.274Z,8.89
2023-02-14T00:15:10.309Z,8.88
2023-02-14T00:17:38.019Z,8.86
2023-02-14T00:20:06.948Z,8.86
2023-02-14T00:22:34.620Z,8.84
2023-02-14T00:25:02.368Z,8.82
2023-02-14T00:27:31.636Z,8.81
2023-02-14T00:30:02.581Z,8.80
2023-02-14T00:32:31.124Z,8.76
2023-02-14T00:34:58.885Z,8.77
2023-02-14T00:37:26.592Z,8.76
2023-02-14T00:39:54.368Z,8.75
2023-02-14T00:42:22.126Z,8.73
2023-02-14T00:44:51.182Z,8.73
2023-02-14T00:47:19.180Z,8.71
2023-02-14T00:49:47.005Z,8.70
2023-02-14T00:52:14.795Z,8.69
2023-02-14T00:54:42.559Z,8.68
2023-02-14T00:57:10.391Z,8.66
2023-02-14T00:59:38.148Z,8.65
2023-02-14T01:02:07.369Z,8.62
2023-02-14T01:04:35.323Z,8.62
2023-02-14T01:07:03.072Z,8.59
2023-02-14T01:09:30.816Z,8.58
2023-02-14T01:11:58.541Z,8.56
2023-02-14T01:14:26.260Z,8.54
2023-02-14T01:16:54.086Z,8.53
2023-02-14T01:19:23.152Z,8.52
2023-02-14T01:21:50.861Z,8.50
2023-02-14T01:24:18.613Z,8.49
2023-02-14T01:26:46.328Z,8.48
2023-02-14T01:29:14.042Z,8.45
2023-02-14T01:31:42.072Z,8.45
2023-02-14T01:34:09.995Z,8.43
2023-02-14T01:36:40.839Z,8.42
2023-02-14T01:39:11.599Z,8.39
2023-02-14T01:41:41.416Z,8.38
2023-02-14T01:44:47.456Z,8.37
2023-02-14T01:47:15.626Z,8.32
2023-02-14T01:49:47.545Z,8.35
2023-02-14T01:52:19.686Z,8.33
2023-02-14T01:55:01.390Z,8.32
2023-02-14T01:57:35.801Z,8.31
2023-02-14T02:00:17.851Z,8.29
2023-02-14T02:02:45.853Z,8.28
2023-02-14T02:05:14.469Z,8.26
2023-02-14T02:07:43.844Z,8.24
2023-02-14T02:10:11.998Z,8.21
2023-02-14T02:12:40.001Z,8.23
2023-02-14T02:15:09.123Z,8.21
2023-02-14T02:17:50.020Z,8.18
2023-02-14T02:20:44.572Z,8.16
2023-02-14T02:23:48.212Z,8.15
2023-02-14T02:26:38.242Z,8.13
2023-02-14T02:29:35.734Z,8.12
2023-02-14T02:32:28.593Z,8.11
2023-02-14T02:35:18.828Z,8.10
2023-02-14T02:37:59.476Z,8.08
2023-02-14T02:40:40.305Z,8.08
2023-02-14T02:43:17.754Z,8.08
2023-02-14T02:46:09.701Z,8.06
2023-02-14T02:48:43.453Z,8.05
2023-02-14T02:51:34.740Z,8.04
2023-02-14T02:54:08.102Z,8.03
2023-02-14T02:56:47.462Z,8.03
2023-02-14T02:59:19.810Z,8.00
2023-02-14T03:01:53.350Z,8.00
2023-02-14T03:04:40.225Z,7.98
2023-02-14T03:07:23.272Z,7.97
2023-02-14T03:09:53.921Z,7.97
2023-02-14T03:12:47.659Z,7.95
2023-02-14T03:15:23.086Z,7.94
2023-02-14T03:18:02.917Z,7.92
2023-02-14T03:20:40.059Z,7.91
2023-02-14T03:23:15.826Z,7.91
2023-02-14T03:25:51.033Z,7.89
2023-02-14T03:28:24.762Z,7.88
2023-02-14T03:31:03.230Z,7.85
2023-02-14T03:33:36.896Z,7.84
2023-02-14T03:36:11.562Z,7.82
2023-02-14T03:38:45.188Z,7.82
2023-02-14T03:41:15.943Z,7.80
2023-02-14T03:43:48.240Z,7.79
2023-02-14T03:46:21.231Z,7.78
2023-02-14T03:48:51.561Z,7.76
2023-02-14T03:51:22.098Z,7.74
2023-02-14T03:53:54.119Z,7.73
2023-02-14T03:56:31.092Z,7.70
2023-02-14T03:59:00.379Z,7.69
2023-02-14T04:01:33.682Z,7.68
2023-02-14T04:04:02.807Z,7.67
2023-02-14T04:06:30.522Z,7.66
2023-02-14T04:08:59.724Z,7.63
2023-02-14T04:11:27.918Z,7.63
2023-02-14T04:13:55.591Z,7.62
2023-02-14T04:16:23.312Z,7.60
2023-02-14T04:19:08.445Z,7.58
2023-02-14T04:21:36.161Z,7.57
2023-02-14T04:24:05.859Z,7.58
2023-02-14T04:26:33.643Z,7.56
2023-02-14T04:29:01.342Z,7.54
2023-02-14T04:31:29.087Z,7.53
2023-02-14T04:33:57.016Z,7.51
2023-02-14T04:36:24.689Z,7.51
2023-02-14T04:38:52.680Z,7.50
2023-02-14T04:41:21.737Z,7.48
2023-02-14T04:43:49.429Z,7.47
2023-02-14T04:46:17.132Z,7.46
2023-02-14T04:48:44.880Z,7.45
2023-02-14T04:51:12.647Z,7.44
2023-02-14T04:53:40.527Z,7.43
2023-02-14T04:56:09.159Z,7.41
2023-02-14T04:58:38.228Z,7.42
2023-02-14T05:01:06.000Z,7.40
2023-02-14T05:03:33.792Z,7.32
2023-02-14T05:06:01.529Z,7.37
2023-02-14T05:08:29.240Z,7.35
2023-02-14T05:10:57.223Z,7.34
2023-02-14T05:13:25.090Z,7.34
2023-02-14T05:15:54.158Z,7.33
2023-02-14T05:18:22.351Z,7.30
2023-02-14T05:20:50.782Z,7.31
2023-02-14T05:23:18.751Z,7.29
2023-02-14T05:25:49.122Z,7.29
2023-02-14T05:28:17.611Z,7.29
2023-02-14T05:30:45.329Z,7.30
2023-02-14T05:33:14.431Z,7.27
2023-02-14T05:35:42.215Z,7.27
2023-02-14T05:38:09.920Z,7.27
2023-02-14T05:40:37.633Z,7.25
2023-02-14T05:43:05.309Z,7.25
2023-02-14T05:45:33.068Z,7.24
2023-02-14T05:48:00.970Z,7.23
2023-02-14T05:50:30.215Z,7.23
2023-02-14T05:52:58.134Z,7.22
2023-02-14T05:55:26.298Z,7.21
2023-02-14T05:57:53.996Z,7.18
2023-02-14T06:00:23.177Z,7.15
2023-02-14T06:02:52.381Z,7.16
2023-02-14T06:05:20.259Z,7.16
2023-02-14T06:07:50.694Z,7.15
2023-02-14T06:10:18.976Z,7.15
2023-02-14T06:12:46.780Z,7.13
2023-02-14T06:15:14.485Z,7.10
2023-02-14T06:17:42.221Z,7.10
2023-02-14T06:20:10.864Z,7.10
2023-02-14T06:22:39.144Z,7.05
2023-02-14T06:25:08.905Z,7.07
2023-02-14T06:27:36.638Z,7.05
2023-02-14T06:30:05.119Z,7.04
2023-02-14T06:32:32.898Z,7.03
2023-02-14T06:35:00.622Z,7.01
2023-02-14T06:37:28.343Z,7.01
2023-02-14T06:39:56.061Z,6.99
2023-02-14T06:42:25.156Z,6.99
2023-02-14T06:44:52.858Z,6.98
2023-02-14T06:47:20.711Z,6.98
2023-02-14T06:49:48.401Z,6.96
2023-02-14T06:52:16.107Z,6.95
2023-02-14T06:54:44.660Z,6.86
2023-02-14T06:57:12.401Z,6.79
2023-02-14T06:59:41.477Z,6.79
2023-02-14T07:02:11.639Z,6.80
2023-02-14T07:04:39.435Z,6.81
2023-02-14T07:07:07.168Z,6.81
2023-02-14T07:09:34.930Z,6.81
2023-02-14T07:12:02.651Z,6.76
2023-02-14T07:14:30.370Z,6.73
2023-02-14T07:16:59.443Z,6.73
2023-02-14T07:19:27.272Z,6.71
2023-02-14T07:21:54.987Z,6.74
2023-02-14T07:24:22.812Z,6.74
2023-02-14T07:26:50.484Z,6.72
2023-02-14T07:29:18.320Z,6.72
2023-02-14T07:31:46.237Z,6.73
2023-02-14T07:34:15.366Z,6.70
2023-02-14T07:36:44.116Z,6.71
2023-02-14T07:39:12.321Z,6.71
2023-02-14T07:41:40.008Z,6.73
2023-02-14T07:44:07.742Z,6.71
2023-02-14T07:46:35.464Z,6.71
2023-02-14T07:49:03.241Z,6.71
2023-02-14T07:51:32.449Z,6.71
2023-02-14T07:54:00.222Z,6.70
2023-02-14T07:56:27.966Z,6.70
2023-02-14T07:58:55.697Z,6.71
2023-02-14T08:01:23.495Z,6.68
2023-02-14T08:03:51.589Z,6.68
2023-02-14T08:06:20.235Z,6.68
2023-02-14T08:08:49.582Z,6.68
2023-02-14T08:11:37.386Z,6.69
2023-02-14T08:14:06.040Z,6.69
2023-02-14T08:16:34.657Z,6.69
2023-02-14T08:19:03.103Z,6.68
2023-02-14T08:21:31.680Z,6.69
2023-02-14T08:24:00.810Z,6.69
2023-02-14T08:26:29.898Z,6.70
2023-02-14T08:28:57.635Z,6.70
2023-02-14T08:31:35.117Z,6.72
2023-02-14T08:34:04.064Z,6.72
2023-02-14T08:36:31.798Z,6.72
2023-02-14T08:39:01.018Z,6.71
2023-02-14T08:41:28.746Z,6.71
2023-02-14T08:43:56.475Z,6.72
2023-02-14T08:46:24.377Z,6.74
2023-02-14T08:48:53.468Z,6.76
2023-02-14T08:51:22.728Z,6.75
2023-02-14T08:53:52.156Z,6.75
2023-02-14T08:56:22.679Z,6.75
2023-02-14T08:58:54.545Z,6.76
2023-02-14T09:01:22.464Z,6.78
2023-02-14T09:03:50.665Z,6.76
2023-02-14T09:06:18.826Z,6.77
2023-02-14T09:08:47.114Z,6.78
2023-02-14T09:11:18.697Z,6.80
2023-02-14T09:13:48.237Z,6.78
2023-02-14T09:16:17.635Z,6.78
2023-02-14T09:18:46.784Z,6.78
2023-02-14T09:21:17.296Z,6.79
2023-02-14T09:23:45.110Z,6.81
2023-02-14T09:26:15.192Z,6.83
2023-02-14T09:28:43.834Z,6.83
2023-02-14T09:31:15.151Z,6.85
2023-02-14T09:33:43.881Z,6.84
2023-02-14T09:36:29.060Z,6.86
2023-02-14T09:38:56.827Z,6.87
2023-02-14T09:41:49.594Z,6.88
2023-02-14T09:44:26.738Z,6.88
2023-02-14T09:47:00.577Z,6.89
2023-02-14T09:49:33.554Z,6.91
2023-02-14T09:52:03.641Z,6.91
2023-02-14T09:54:34.608Z,6.95
2023-02-14T09:57:07.083Z,6.97
2023-02-14T09:59:40.634Z,6.99
2023-02-14T10:02:23.992Z,7.01
2023-02-14T10:05:05.996Z,7.05
2023-02-14T10:07:46.817Z,7.08
2023-02-14T10:10:18.113Z,7.11
2023-02-14T10:12:51.572Z,7.12
2023-02-14T10:15:24.494Z,7.13
2023-02-14T10:17:58.060Z,7.14
2023-02-14T10:20:30.096Z,7.16
2023-02-14T10:23:04.437Z,7.18
2023-02-14T10:25:40.936Z,7.22
2023-02-14T10:28:14.645Z,7.25
2023-02-14T10:30:50.897Z,7.28
2023-02-14T10:33:22.853Z,7.30
2023-02-14T10:35:51.635Z,7.32
2023-02-14T10:38:35.589Z,7.34
2023-02-14T10:41:25.965Z,7.37
2023-02-14T10:44:04.491Z,7.41
2023-02-14T10:46:40.841Z,7.43
2023-02-14T10:49:26.613Z,7.47
2023-02-14T10:52:01.094Z,7.47
2023-02-14T10:54:33.797Z,7.52
2023-02-14T10:57:05.455Z,7.55
2023-02-14T10:59:37.930Z,7.58
2023-02-14T11:02:07.100Z,7.59
2023-02-14T11:04:37.011Z,7.61
2023-02-14T11:07:04.769Z,7.64
2023-02-14T11:09:32.534Z,7.67
2023-02-14T11:12:01.300Z,7.71
2023-02-14T11:14:32.463Z,7.74
2023-02-14T11:17:01.607Z,7.78
2023-02-14T11:19:37.262Z,7.80
2023-02-14T11:22:10.133Z,7.84
2023-02-14T11:24:41.512Z,7.88
2023-02-14T11:27:19.007Z,7.91
2023-02-14T11:29:52.268Z,7.95
2023-02-14T11:32:23.742Z,7.99
2023-02-14T11:34:57.982Z,8.03
2023-02-14T11:37:31.496Z,8.06
2023-02-14T11:40:01.440Z,8.08
2023-02-14T11:42:42.069Z,8.11
2023-02-14T11:45:28.318Z,8.12
2023-02-14T11:48:10.206Z,8.21
2023-02-14T11:50:39.895Z,8.38
2023-02-14T11:53:13.376Z,8.60
2023-02-14T11:55:42.191Z,8.81
2023-02-14T11:58:29.564Z,9.01
2023-02-14T12:00:57.321Z,9.24
2023-02-14T12:03:26.446Z,9.44
2023-02-14T12:06:00.387Z,9.66
2023-02-14T12:08:32.602Z,9.88
2023-02-14T12:11:06.125Z,10.06
2023-02-14T12:13:34.666Z,10.19
2023-02-14T12:16:03.757Z,10.33
2023-02-14T12:18:49.601Z,10.44
2023-02-14T12:21:43.310Z,10.38
2023-02-14T12:24:19.726Z,10.25
2023-02-14T12:26:54.254Z,10.09
2023-02-14T12:29:26.561Z,9.94
2023-02-14T12:31:57.857Z,9.85
2023-02-14T12:34:25.702Z,9.78
2023-02-14T12:37:18.184Z,9.70
2023-02-14T12:40:12.425Z,9.66
2023-02-14T12:43:04.457Z,9.61
2023-02-14T12:45:50.415Z,9.59
2023-02-14T12:48:28.991Z,9.55
2023-02-14T12:51:07.683Z,9.53
2023-02-14T12:53:52.649Z,9.50
2023-02-14T12:56:33.616Z,9.49
2023-02-14T12:59:14.859Z,9.48
2023-02-14T13:02:08.828Z,9.47
2023-02-14T13:05:01.648Z,9.46
2023-02-14T13:08:00.963Z,9.48
2023-02-14T13:10:43.536Z,9.46
2023-02-14T13:13:20.343Z,9.50
2023-02-14T13:15:53.001Z,9.50
2023-02-14T13:18:36.494Z,9.50
2023-02-14T13:21:07.331Z,9.50
2023-02-14T13:23:40.080Z,9.52
2023-02-14T13:26:12.376Z,9.63
2023-02-14T13:28:48.780Z,9.81
2023-02-14T13:31:17.027Z,10.02
2023-02-14T13:33:49.993Z,10.23
2023-02-14T13:36:18.173Z,10.41
2023-02-14T13:38:49.100Z,10.60
2023-02-14T13:41:18.253Z,10.76
2023-02-14T13:43:56.158Z,10.80
2023-02-14T13:46:49.695Z,10.75
2023-02-14T13:49:30.529Z,10.66
2023-02-14T13:52:01.167Z,10.57
2023-02-14T13:54:35.826Z,10.49
2023-02-14T13:57:24.490Z,10.42
2023-02-14T14:00:25.410Z,10.38
2023-02-14T14:02:54.548Z,10.35
2023-02-14T14:06:01.575Z,10.33
2023-02-14T14:08:50.853Z,10.32
2023-02-14T14:11:59.572Z,10.29
2023-02-14T14:14:36.268Z,10.25
2023-02-14T14:17:06.528Z,10.25
2023-02-14T14:19:40.052Z,10.25
2023-02-14T14:22:10.840Z,10.23
2023-02-14T14:24:40.439Z,10.23
2023-02-14T14:27:16.062Z,10.22
2023-02-14T14:29:47.534Z,10.24
2023-02-14T14:32:21.630Z,10.39
2023-02-14T14:34:52.143Z,10.56
2023-02-14T14:37:22.438Z,10.75
2023-02-14T14:39:54.683Z,10.95
2023-02-14T14:42:24.728Z,11.11
2023-02-14T14:44:55.705Z,11.24
2023-02-14T14:47:28.336Z,11.40
2023-02-14T14:50:01.208Z,11.62
2023-02-14T14:52:36.102Z,11.67
2023-02-14T14:55:05.887Z,11.62
2023-02-14T14:57:36.274Z,11.52
2023-02-14T15:00:19.488Z,11.39
2023-02-14T15:02:59.873Z,11.26
2023-02-14T15:05:29.700Z,11.18
2023-02-14T15:07:58.365Z,11.11
2023-02-14T15:10:28.724Z,11.05
2023-02-14T15:13:17.064Z,11.00
2023-02-14T15:15:50.825Z,10.95
2023-02-14T15:18:22.335Z,10.91
2023-02-14T15:20:51.215Z,10.80
2023-02-14T15:23:23.007Z,10.84
2023-02-14T15:25:51.702Z,10.79
2023-02-14T15:28:28.518Z,10.74
2023-02-14T15:30:57.579Z,10.75
2023-02-14T15:33:27.304Z,10.71
2023-02-14T15:35:55.383Z,10.71
2023-02-14T15:38:24.717Z,10.69
2023-02-14T15:40:54.566Z,10.68
2023-02-14T15:43:30.925Z,10.68
2023-02-14T15:46:02.973Z,10.67
2023-02-14T15:48:34.708Z,10.67
2023-02-14T15:51:06.277Z,10.75
2023-02-14T15:53:41.917Z,10.90
2023-02-14T15:56:16.377Z,11.07
2023-02-14T15:58:46.180Z,11.27
2023-02-14T16:01:14.452Z,11.45
2023-02-14T16:03:51.156Z,11.54
2023-02-14T16:06:33.918Z,11.54
2023-02-14T16:09:02.774Z,11.48
2023-02-14T16:11:33.265Z,11.41
2023-02-14T16:14:22.210Z,11.31
2023-02-14T16:17:04.927Z,11.22
2023-02-14T16:19:37.071Z,11.15
2023-02-14T16:22:06.643Z,11.09
2023-02-14T16:24:35.995Z,11.03
2023-02-14T16:27:06.916Z,11.01
2023-02-14T16:29:36.259Z,10.97
2023-02-14T16:32:17.412Z,10.93
2023-02-14T16:34:48.348Z,10.92
2023-02-14T16:37:22.262Z,10.90
2023-02-14T16:39:51.861Z,10.89
2023-02-14T16:42:20.180Z,10.87
2023-02-14T16:44:48.466Z,10.84
2023-02-14T16:47:17.945Z,10.83
2023-02-14T16:49:47.174Z,10.83
2023-02-14T16:52:17.437Z,10.80
2023-02-14T16:54:45.351Z,10.78
2023-02-14T16:57:19.729Z,10.77
2023-02-14T16:59:47.827Z,10.74
2023-02-14T17:02:16.499Z,10.71
2023-02-14T17:04:44.860Z,10.72
2023-02-14T17:07:16.403Z,10.70
2023-02-14T17:09:48.573Z,10.70
2023-02-14T17:12:19.591Z,10.69
2023-02-14T17:14:50.856Z,10.67
2023-02-14T17:17:18.747Z,10.66
2023-02-14T17:19:46.642Z,10.66
2023-02-14T17:22:15.942Z,10.65
2023-02-14T17:24:43.648Z,10.78
2023-02-14T17:27:11.380Z,10.91
2023-02-14T17:29:39.095Z,11.09
2023-02-14T17:32:06.927Z,11.24
2023-02-14T17:34:34.932Z,11.38
2023-02-14T17:37:03.243Z,11.55
2023-02-14T17:39:32.327Z,11.73
2023-02-14T17:42:00.013Z,11.87
2023-02-14T17:44:29.604Z,11.96
2023-02-14T17:46:57.950Z,11.82
2023-02-14T17:49:25.873Z,11.75
2023-02-14T17:51:53.582Z,11.62
2023-02-14T17:54:21.251Z,11.48
2023-02-14T17:56:50.672Z,11.36
2023-02-14T17:59:18.414Z,11.27
2023-02-14T18:01:46.217Z,11.20
2023-02-14T18:04:13.993Z,11.12
2023-02-14T18:06:42.910Z,11.07
2023-02-14T18:09:10.811Z,11.02
2023-02-14T18:11:42.219Z,10.96
2023-02-14T18:14:11.786Z,10.93
2023-02-14T18:16:40.512Z,10.89
2023-02-14T18:19:10.143Z,10.86
2023-02-14T18:21:40.042Z,10.94
2023-02-14T18:24:08.665Z,11.06
2023-02-14T18:26:38.013Z,11.20
2023-02-14T18:29:06.795Z,11.37
2023-02-14T18:31:37.461Z,11.52
2023-02-14T18:34:06.058Z,11.61
2023-02-14T18:36:35.636Z,11.60
2023-02-14T18:39:04.232Z,11.52
2023-02-14T18:41:32.071Z,11.39
2023-02-14T18:43:59.840Z,11.31
2023-02-14T18:46:29.248Z,11.19
2023-02-14T18:48:58.436Z,11.13
2023-02-14T18:51:27.901Z,11.06
2023-02-14T18:53:58.105Z,11.00
2023-02-14T18:56:28.947Z,10.93
2023-02-14T18:58:59.197Z,10.86
2023-02-14T19:01:30.505Z,10.81
2023-02-14T19:04:00.766Z,10.76
2023-02-14T19:06:29.932Z,10.74
2023-02-14T19:08:58.309Z,10.70
2023-02-14T19:11:28.619Z,10.61
2023-02-14T19:13:58.870Z,10.59
2023-02-14T19:16:31.828Z,10.58
2023-02-14T19:19:02.690Z,10.57
2023-02-14T19:21:33.585Z,10.55
2023-02-14T19:24:02.917Z,10.52
2023-02-14T19:26:34.873Z,10.52
2023-02-14T19:29:06.844Z,10.49
2023-02-14T19:31:36.512Z,10.48
2023-02-14T19:34:07.792Z,10.42
2023-02-14T19:36:39.462Z,10.42
2023-02-14T19:39:07.606Z,10.39
2023-02-14T19:41:35.657Z,10.37
2023-02-14T19:44:06.007Z,10.34
2023-02-14T19:46:34.945Z,10.29
2023-02-14T19:49:04.305Z,10.28
2023-02-14T19:51:35.971Z,10.26
2023-02-14T19:54:07.104Z,10.23
2023-02-14T19:56:37.527Z,10.22
2023-02-14T19:59:09.082Z,10.22
2023-02-14T20:01:39.443Z,10.19
2023-02-14T20:04:09.936Z,10.14
2023-02-14T20:06:39.414Z,10.15
2023-02-14T20:09:08.459Z,10.13
2023-02-14T20:11:39.299Z,10.11
2023-02-14T20:14:08.310Z,10.10
2023-02-14T20:16:38.226Z,10.08
2023-02-14T20:19:08.551Z,10.06
2023-02-14T20:21:36.933Z,10.06
2023-02-14T20:24:06.627Z,10.04
2023-02-14T20:26:37.181Z,10.03
2023-02-14T20:29:06.782Z,10.02
2023-02-14T20:31:35.333Z,10.02
2023-02-14T20:34:03.523Z,9.99
2023-02-14T20:36:32.009Z,9.99
2023-02-14T20:39:01.843Z,9.97
2023-02-14T20:41:34.362Z,9.95
2023-02-14T20:44:06.535Z,9.94
2023-02-14T20:46:34.901Z,9.92
2023-02-14T20:49:03.125Z,9.90
2023-02-14T20:51:30.886Z,9.89
2023-02-14T20:53:58.660Z,9.87
2023-02-14T20:56:26.365Z,9.85
2023-02-14T20:58:55.420Z,9.85
2023-02-14T21:01:25.029Z,9.84
2023-02-14T21:03:54.652Z,9.83
2023-02-14T21:06:23.756Z,9.80
2023-02-14T21:08:51.716Z,9.82
2023-02-14T21:11:22.526Z,9.80
2023-02-14T21:13:50.604Z,9.78
2023-02-14T21:16:21.399Z,9.73
2023-02-14T21:18:52.433Z,9.72
2023-02-14T21:21:22.967Z,9.71
2023-02-14T21:23:51.934Z,9.69
2023-02-14T21:26:21.320Z,9.58
2023-02-14T21:28:49.312Z,9.64
2023-02-14T21:31:23.306Z,9.58
2023-02-14T21:33:51.717Z,9.58
2023-02-14T21:36:21.293Z,9.59
2023-02-14T21:38:49.415Z,9.57
2023-02-14T21:41:19.976Z,9.58
2023-02-14T21:43:49.795Z,9.56
2023-02-14T21:46:19.021Z,9.54
2023-02-14T21:49:05.835Z,9.53
2023-02-14T21:51:33.880Z,9.51
2023-02-14T21:54:01.558Z,9.50
2023-02-14T21:56:29.592Z,9.48
2023-02-14T21:58:57.517Z,9.47
2023-02-14T22:01:26.941Z,9.46
2023-02-14T22:03:56.881Z,9.44
2023-02-14T22:06:26.312Z,9.42
2023-02-14T22:08:55.086Z,9.41
2023-02-14T22:11:24.188Z,9.41
2023-02-14T22:13:52.016Z,9.38
2023-02-14T22:16:22.104Z,9.38
2023-02-14T22:18:50.321Z,9.35
2023-02-14T22:21:21.606Z,9.33
2023-02-14T22:23:49.641Z,9.31
2023-02-14T22:26:19.944Z,9.29
2023-02-14T22:28:49.000Z,9.27
2023-02-14T22:31:18.629Z,9.26
2023-02-14T22:33:47.427Z,9.25
2023-02-14T22:36:15.538Z,9.17
2023-02-14T22:38:44.903Z,9.23
2023-02-14T22:41:14.427Z,9.23
2023-02-14T22:43:42.953Z,9.21
2023-02-14T22:46:13.070Z,9.24
2023-02-14T22:48:41.455Z,9.23
2023-02-14T22:51:11.552Z,9.23
2023-02-14T22:53:39.839Z,9.23
2023-02-14T22:56:13.593Z,9.21
2023-02-14T22:58:41.331Z,9.22
2023-02-14T23:01:14.231Z,9.21
2023-02-14T23:03:42.025Z,9.20
2023-02-14T23:06:09.919Z,9.18
2023-02-14T23:08:39.964Z,9.16
2023-02-14T23:11:09.118Z,9.15
2023-02-14T23:13:56.525Z,9.17
2023-02-14T23:16:41.415Z,9.19
2023-02-14T23:19:30.696Z,9.19
2023-02-14T23:21:58.672Z,9.18
2023-02-14T23:24:26.487Z,9.17
2023-02-14T23:26:55.868Z,9.17
2023-02-14T23:29:25.272Z,9.14
2023-02-14T23:31:53.117Z,9.11
2023-02-14T23:34:21.385Z,9.10
2023-02-14T23:36:49.130Z,9.07
2023-02-14T23:39:16.931Z,9.05
2023-02-14T23:41:50.777Z,9.02
2023-02-14T23:44:20.564Z,9.00
2023-02-14T23:46:50.827Z,8.99
2023-02-14T23:49:19.494Z,8.96
2023-02-14T23:51:48.689Z,8.96
2023-02-14T23:54:16.748Z,8.93
2023-02-14T23:56:46.856Z,8.91
2023-02-14T23:59:16.077Z,8.88
